createdAt,value
2022-09-04T00:01:31.745Z,23.21
2022-09-04T00:04:11.381Z,23.20
2022-09-04T00:06:49.714Z,23.19
2022-09-04T00:09:26.679Z,23.18
2022-09-04T00:12:04.315Z,23.16
2022-09-04T00:14:40.612Z,23.15
2022-09-04T00:17:15.523Z,23.13
2022-09-04T00:19:49.962Z,23.11
2022-09-04T00:22:28.405Z,23.04
2022-09-04T00:25:04.186Z,23.10
2022-09-04T00:27:44.245Z,23.07
2022-09-04T00:30:17.387Z,23.06
2022-09-04T00:32:50.360Z,23.02
2022-09-04T00:37:56.408Z,22.99
2022-09-04T00:40:31.295Z,22.96
2022-09-04T00:43:50.092Z,22.96
2022-09-04T00:46:48.459Z,22.97
2022-09-04T00:49:38.414Z,22.95
2022-09-04T00:52:16.941Z,22.92
2022-09-04T00:54:53.669Z,22.90
2022-09-04T00:57:57.890Z,22.81
2022-09-04T01:00:28.933Z,22.86
2022-09-04T01:03:20.049Z,22.84
2022-09-04T01:06:04.995Z,22.82
2022-09-04T01:08:48.981Z,22.80
2022-09-04T01:11:38.296Z,22.78
2022-09-04T01:14:15.305Z,22.75
2022-09-04T01:16:49.210Z,22.73
2022-09-04T01:19:31.733Z,22.71
2022-09-04T01:22:18.123Z,22.70
2022-09-04T01:25:00.593Z,22.67
2022-09-04T01:27:33.721Z,22.64
2022-09-04T01:30:08.120Z,22.62
2022-09-04T01:32:46.844Z,22.55
2022-09-04T01:35:25.424Z,22.58
2022-09-04T01:38:03.213Z,22.56
2022-09-04T01:40:38.150Z,22.56
2022-09-04T01:43:12.060Z,22.54
2022-09-04T01:45:54.498Z,22.51
2022-09-04T01:48:33.090Z,22.51
2022-09-04T01:51:10.052Z,22.44
2022-09-04T01:53:43.340Z,22.46
2022-09-04T01:56:16.116Z,22.46
2022-09-04T01:58:54.621Z,22.44
2022-09-04T02:01:33.223Z,22.43
2022-09-04T02:04:08.071Z,22.41
2022-09-04T02:06:48.292Z,22.36
2022-09-04T02:09:29.971Z,22.39
2022-09-04T02:12:10.510Z,22.38
2022-09-04T02:14:48.322Z,22.35
2022-09-04T02:17:22.561Z,22.34
2022-09-04T02:20:04.035Z,22.34
2022-09-04T02:22:42.336Z,22.31
2022-09-04T02:25:21.839Z,22.27
2022-09-04T02:27:55.698Z,22.26
2022-09-04T02:30:25.181Z,22.27
2022-09-04T02:33:01.320Z,22.25
2022-09-04T02:35:35.235Z,22.22
2022-09-04T02:38:13.057Z,22.20
2022-09-04T02:40:51.226Z,22.19
2022-09-04T02:43:35.658Z,22.15
2022-09-04T02:46:11.293Z,22.06
2022-09-04T02:48:52.476Z,22.08
2022-09-04T02:51:32.102Z,22.05
2022-09-04T02:54:08.146Z,22.01
2022-09-04T02:56:45.598Z,21.99
2022-09-04T02:59:35.655Z,21.95
2022-09-04T03:02:06.673Z,21.93
2022-09-04T03:04:41.424Z,21.93
2022-09-04T03:07:14.600Z,21.91
2022-09-04T03:09:46.592Z,21.89
2022-09-04T03:12:28.823Z,21.90
2022-09-04T03:15:04.551Z,21.89
2022-09-04T03:17:45.896Z,21.89
2022-09-04T03:20:19.982Z,21.87
2022-09-04T03:22:55.846Z,21.87
2022-09-04T03:25:49.727Z,21.86
2022-09-04T03:28:27.112Z,21.85
2022-09-04T03:30:58.429Z,21.84
2022-09-04T03:33:34.168Z,21.85
2022-09-04T03:36:09.521Z,21.85
2022-09-04T03:38:44.440Z,21.87
2022-09-04T03:41:30.529Z,21.90
2022-09-04T03:44:12.469Z,21.88
2022-09-04T03:46:53.563Z,21.87
2022-09-04T03:49:38.671Z,21.84
2022-09-04T03:52:18.414Z,21.84
2022-09-04T03:55:01.858Z,21.79
2022-09-04T03:57:47.114Z,21.82
2022-09-04T04:00:18.324Z,21.80
2022-09-04T04:03:16.182Z,21.81
2022-09-04T04:06:00.042Z,21.80
2022-09-04T04:08:43.818Z,21.79
2022-09-04T04:11:29.502Z,21.78
2022-09-04T04:14:16.627Z,21.75
2022-09-04T04:16:56.066Z,21.73
2022-09-04T04:19:45.744Z,21.69
2022-09-04T04:22:28.826Z,21.69
2022-09-04T04:25:07.523Z,21.67
2022-09-04T04:27:49.967Z,21.66
2022-09-04T04:30:19.606Z,21.63
2022-09-04T04:33:24.171Z,21.64
2022-09-04T04:35:56.845Z,21.62
2022-09-04T04:39:00.771Z,21.60
2022-09-04T04:41:57.259Z,21.60
2022-09-04T04:44:53.432Z,21.58
2022-09-04T04:47:24.653Z,21.61
2022-09-04T04:50:04.116Z,21.60
2022-09-04T04:52:46.043Z,21.58
2022-09-04T04:55:25.413Z,21.56
2022-09-04T04:58:05.621Z,21.53
2022-09-04T05:00:40.185Z,21.43
2022-09-04T05:03:19.404Z,21.50
2022-09-04T05:05:56.300Z,21.49
2022-09-04T05:08:32.949Z,21.47
2022-09-04T05:11:10.435Z,21.46
2022-09-04T05:13:52.882Z,21.45
2022-09-04T05:16:30.781Z,21.45
2022-09-04T05:19:08.446Z,21.44
2022-09-04T05:21:40.627Z,21.43
2022-09-04T05:24:16.407Z,21.43
2022-09-04T05:26:51.858Z,21.43
2022-09-04T05:29:32.293Z,21.43
2022-09-04T05:32:09.495Z,21.44
2022-09-04T05:34:53.624Z,21.45
2022-09-04T05:37:28.934Z,21.45
2022-09-04T05:40:05.933Z,21.46
2022-09-04T05:42:53.916Z,21.47
2022-09-04T05:45:26.306Z,21.49
2022-09-04T05:48:08.948Z,21.49
2022-09-04T05:51:20.217Z,21.51
2022-09-04T05:54:18.811Z,21.53
2022-09-04T05:57:11.633Z,21.56
2022-09-04T06:00:16.122Z,21.62
2022-09-04T06:03:25.549Z,21.66
2022-09-04T06:06:08.387Z,21.61
2022-09-04T06:08:59.227Z,21.82
2022-09-04T06:11:45.963Z,21.89
2022-09-04T06:14:40.650Z,21.95
2022-09-04T06:17:27.480Z,22.01
2022-09-04T06:20:11.691Z,22.08
2022-09-04T06:22:54.997Z,22.13
2022-09-04T06:25:41.119Z,22.17
2022-09-04T06:28:33.160Z,22.22
2022-09-04T06:31:10.122Z,22.27
2022-09-04T06:33:55.321Z,22.33
2022-09-04T06:36:44.480Z,22.38
2022-09-04T06:39:39.101Z,22.42
2022-09-04T06:42:21.828Z,22.48
2022-09-04T06:45:03.330Z,22.52
2022-09-04T06:47:45.075Z,22.57
2022-09-04T06:50:24.851Z,22.61
2022-09-04T06:53:10.958Z,22.68
2022-09-04T06:55:45.818Z,22.75
2022-09-04T06:58:43.079Z,22.83
2022-09-04T07:01:17.220Z,22.93
2022-09-04T07:04:06.674Z,23.04
2022-09-04T07:06:53.079Z,23.17
2022-09-04T07:09:28.030Z,23.32
2022-09-04T07:12:18.899Z,23.45
2022-09-04T07:15:27.339Z,23.59
2022-09-04T07:18:02.913Z,23.74
2022-09-04T07:20:37.353Z,23.87
2022-09-04T07:23:25.571Z,23.97
2022-09-04T07:26:04.193Z,24.13
2022-09-04T07:28:49.567Z,24.25
2022-09-04T07:31:23.509Z,24.39
2022-09-04T07:34:02.873Z,24.53
2022-09-04T07:36:37.595Z,24.64
2022-09-04T07:39:15.478Z,24.76
2022-09-04T07:41:50.541Z,24.87
2022-09-04T07:44:24.332Z,25.00
2022-09-04T07:47:00.554Z,25.11
2022-09-04T07:49:36.080Z,25.22
2022-09-04T07:52:25.198Z,25.35
2022-09-04T07:55:19.237Z,25.46
2022-09-04T07:58:07.960Z,25.56
2022-09-04T08:00:48.662Z,25.66
2022-09-04T08:03:54.103Z,25.76
2022-09-04T08:06:31.148Z,25.88
2022-09-04T08:09:43.183Z,25.97
2022-09-04T08:12:47.631Z,26.08
2022-09-04T08:15:20.145Z,26.18
2022-09-04T08:18:10.002Z,26.26
2022-09-04T08:20:45.847Z,26.39
2022-09-04T08:23:30.616Z,26.48
2022-09-04T08:26:14.530Z,26.54
2022-09-04T08:29:03.073Z,26.68
2022-09-04T08:31:33.384Z,26.76
2022-09-04T08:34:36.032Z,26.88
2022-09-04T08:37:17.462Z,26.99
2022-09-04T08:39:56.730Z,27.11
2022-09-04T08:43:04.998Z,27.21
2022-09-04T08:46:13.427Z,27.33
2022-09-04T08:49:11.769Z,27.43
2022-09-04T08:52:34.713Z,27.53
2022-09-04T08:55:18.514Z,27.60
2022-09-04T08:58:27.205Z,27.67
2022-09-04T09:01:26.567Z,27.74
2022-09-04T09:04:20.485Z,27.80
2022-09-04T09:07:26.110Z,27.83
2022-09-04T09:10:34.703Z,27.87
2022-09-04T09:13:35.829Z,27.92
2022-09-04T09:16:20.380Z,27.92
2022-09-04T09:19:22.399Z,27.96
2022-09-04T09:22:24.506Z,27.98
2022-09-04T09:25:20.915Z,28.01
2022-09-04T09:28:36.112Z,28.02
2022-09-04T09:31:38.333Z,28.07
2022-09-04T09:34:38.044Z,28.10
2022-09-04T09:37:43.401Z,28.16
2022-09-04T09:40:33.771Z,28.17
2022-09-04T09:43:42.004Z,28.20
2022-09-04T09:46:47.272Z,28.26
2022-09-04T09:50:03.369Z,28.32
2022-09-04T09:52:56.734Z,28.33
2022-09-04T09:55:58.498Z,28.38
2022-09-04T09:59:02.690Z,28.45
2022-09-04T10:01:52.239Z,28.50
2022-09-04T10:04:51.699Z,28.58
2022-09-04T10:07:46.499Z,28.65
2022-09-04T10:10:51.524Z,28.72
2022-09-04T10:13:52.056Z,28.79
2022-09-04T10:16:47.462Z,28.82
2022-09-04T10:19:51.316Z,28.87
2022-09-04T10:22:40.397Z,28.92
2022-09-04T10:25:39.478Z,28.99
2022-09-04T10:28:31.084Z,29.03
2022-09-04T10:31:40.532Z,29.07
2022-09-04T10:34:25.793Z,29.14
2022-09-04T10:37:10.232Z,29.19
2022-09-04T10:40:09.620Z,29.26
2022-09-04T10:42:51.500Z,29.34
2022-09-04T10:45:27.685Z,29.34
2022-09-04T10:48:28.762Z,29.37
2022-09-04T10:51:08.298Z,29.37
2022-09-04T10:54:11.129Z,29.42
2022-09-04T10:56:47.958Z,29.47
2022-09-04T10:59:40.067Z,29.53
2022-09-04T11:02:35.024Z,29.62
2022-09-04T11:05:31.380Z,29.68
2022-09-04T11:08:32.573Z,29.75
2022-09-04T11:11:15.258Z,29.77
2022-09-04T11:14:03.726Z,29.80
2022-09-04T11:17:03.749Z,29.83
2022-09-04T11:20:05.154Z,29.89
2022-09-04T11:23:12.484Z,29.93
2022-09-04T11:26:10.323Z,29.95
2022-09-04T11:28:52.380Z,30.01
2022-09-04T11:31:35.315Z,30.04
2022-09-04T11:34:43.620Z,30.08
2022-09-04T11:37:45.970Z,30.07
2022-09-04T11:40:49.419Z,30.10
2022-09-04T11:43:37.361Z,30.14
2022-09-04T11:46:35.344Z,30.14
2022-09-04T11:49:44.438Z,30.13
2022-09-04T11:52:28.504Z,30.06
2022-09-04T11:55:26.549Z,30.07
2022-09-04T11:58:11.018Z,30.06
2022-09-04T12:00:51.575Z,30.03
2022-09-04T12:03:59.220Z,30.02
2022-09-04T12:06:37.718Z,30.02
2022-09-04T12:09:24.070Z,30.02
2022-09-04T12:12:25.414Z,30.01
2022-09-04T12:15:09.898Z,30.03
2022-09-04T12:18:08.858Z,30.05
2022-09-04T12:20:55.215Z,30.05
2022-09-04T12:23:34.945Z,30.06
2022-09-04T12:26:40.225Z,30.07
2022-09-04T12:30:05.606Z,30.06
2022-09-04T12:33:19.821Z,30.08
2022-09-04T12:36:14.717Z,30.10
2022-09-04T12:39:10.690Z,30.13
2022-09-04T12:41:49.748Z,30.15
2022-09-04T12:44:26.826Z,30.14
2022-09-04T12:47:08.304Z,30.16
2022-09-04T12:50:10.192Z,30.16
2022-09-04T12:52:57.418Z,30.17
2022-09-04T12:55:36.252Z,30.16
2022-09-04T12:58:13.764Z,30.14
2022-09-04T13:00:50.763Z,30.13
2022-09-04T13:03:29.686Z,30.13
2022-09-04T13:06:12.562Z,30.11
2022-09-04T13:09:00.985Z,30.11
2022-09-04T13:11:42.280Z,30.11
2022-09-04T13:14:37.601Z,30.09
2022-09-04T13:17:13.575Z,30.05
2022-09-04T13:19:51.566Z,30.07
2022-09-04T13:22:27.600Z,30.07
2022-09-04T13:25:08.972Z,30.07
2022-09-04T13:27:49.248Z,30.07
2022-09-04T13:30:22.238Z,30.07
2022-09-04T13:33:15.231Z,30.09
2022-09-04T13:35:59.391Z,30.13
2022-09-04T13:38:49.839Z,30.15
2022-09-04T13:41:57.605Z,30.19
2022-09-04T13:44:50.041Z,30.26
2022-09-04T13:47:32.129Z,30.27
2022-09-04T13:50:10.158Z,30.29
2022-09-04T13:52:42.920Z,30.32
2022-09-04T13:55:17.934Z,30.34
2022-09-04T13:57:50.040Z,30.39
2022-09-04T14:00:18.237Z,30.41
2022-09-04T14:02:47.333Z,30.44
2022-09-04T14:05:20.566Z,30.47
2022-09-04T14:07:52.125Z,30.43
2022-09-04T14:10:25.805Z,30.43
2022-09-04T14:13:12.316Z,30.43
2022-09-04T14:16:00.016Z,30.43
2022-09-04T14:18:45.289Z,30.40
2022-09-04T14:21:24.266Z,30.40
2022-09-04T14:24:03.242Z,30.35
2022-09-04T14:26:39.818Z,30.35
2022-09-04T14:29:22.371Z,30.33
2022-09-04T14:32:00.803Z,30.35
2022-09-04T14:34:38.845Z,30.34
2022-09-04T14:37:19.925Z,30.35
2022-09-04T14:39:52.596Z,30.33
2022-09-04T14:42:42.988Z,30.34
2022-09-04T14:45:24.493Z,30.35
2022-09-04T14:47:55.620Z,30.36
2022-09-04T14:50:28.497Z,30.38
2022-09-04T14:53:00.997Z,30.42
2022-09-04T14:55:31.570Z,30.43
2022-09-04T14:58:09.536Z,30.44
2022-09-04T15:00:58.676Z,30.44
2022-09-04T15:03:32.166Z,30.44
2022-09-04T15:06:08.241Z,30.46
2022-09-04T15:08:40.877Z,30.45
2022-09-04T15:11:10.708Z,30.47
2022-09-04T15:13:48.688Z,30.50
2022-09-04T15:16:29.322Z,30.52
2022-09-04T15:19:05.332Z,30.53
2022-09-04T15:21:47.179Z,30.56
2022-09-04T15:24:26.477Z,30.55
2022-09-04T15:27:03.681Z,30.56
2022-09-04T15:29:38.512Z,30.57
2022-09-04T15:32:14.207Z,30.58
2022-09-04T15:34:42.572Z,30.57
2022-09-04T15:37:20.849Z,30.60
2022-09-04T15:39:59.075Z,30.61
2022-09-04T15:42:43.701Z,30.61
2022-09-04T15:45:21.159Z,30.59
2022-09-04T15:48:11.223Z,30.60
2022-09-04T15:50:54.389Z,30.61
2022-09-04T15:53:27.318Z,30.62
2022-09-04T15:56:09.527Z,30.63
2022-09-04T15:58:49.234Z,30.63
2022-09-04T16:01:20.175Z,30.59
2022-09-04T16:04:01.389Z,30.55
2022-09-04T16:06:33.392Z,30.55
2022-09-04T16:09:07.366Z,30.55
2022-09-04T16:11:38.661Z,30.54
2022-09-04T16:14:11.233Z,30.55
2022-09-04T16:16:44.881Z,30.57
2022-09-04T16:19:27.442Z,30.57
2022-09-04T16:22:07.020Z,30.57
2022-09-04T16:24:41.032Z,30.57
2022-09-04T16:27:12.697Z,30.55
2022-09-04T16:29:46.211Z,30.56
2022-09-04T16:32:21.061Z,30.55
2022-09-04T16:34:55.136Z,30.50
2022-09-04T16:37:28.675Z,30.51
2022-09-04T16:40:06.807Z,30.44
2022-09-04T16:42:42.292Z,30.43
2022-09-04T16:45:15.377Z,30.42
2022-09-04T16:47:50.690Z,30.38
2022-09-04T16:50:27.272Z,30.34
2022-09-04T16:53:13.793Z,30.28
2022-09-04T16:55:49.872Z,30.30
2022-09-04T16:58:46.115Z,30.27
2022-09-04T17:01:21.778Z,30.26
2022-09-04T17:04:13.280Z,30.23
2022-09-04T17:06:54.253Z,30.20
2022-09-04T17:09:28.170Z,30.17
2022-09-04T17:12:01.503Z,30.14
2022-09-04T17:14:37.533Z,30.10
2022-09-04T17:17:21.538Z,30.03
2022-09-04T17:20:05.588Z,30.03
2022-09-04T17:28:54.763Z,29.98
2022-09-04T17:29:08.553Z,29.86
2022-09-04T17:29:09.378Z,29.91
2022-09-04T17:31:33.227Z,29.81
2022-09-04T17:40:34.778Z,29.73
2022-09-04T17:40:50.972Z,29.65
2022-09-04T17:40:52.365Z,29.61
2022-09-04T17:43:15.658Z,29.53
2022-09-04T17:45:51.268Z,29.47
2022-09-04T17:48:25.504Z,29.39
2022-09-04T17:50:57.151Z,29.33
2022-09-04T17:53:34.226Z,29.26
2022-09-04T17:56:13.594Z,29.21
2022-09-04T17:58:47.376Z,29.14
2022-09-04T18:01:22.030Z,29.09
2022-09-04T18:04:21.629Z,29.02
2022-09-04T18:07:00.982Z,28.96
2022-09-04T18:10:02.105Z,28.88
2022-09-04T18:12:37.420Z,28.81
2022-09-04T18:15:34.389Z,28.74
2022-09-04T18:18:08.872Z,28.65
2022-09-04T18:20:41.105Z,28.59
2022-09-04T18:23:31.418Z,28.52
2022-09-04T18:26:04.912Z,28.44
2022-09-04T18:28:41.022Z,28.37
2022-09-04T18:37:07.216Z,28.28
2022-09-04T18:37:24.736Z,28.21
2022-09-04T18:37:44.220Z,28.14
2022-09-04T18:40:13.086Z,28.05
2022-09-04T18:50:23.981Z,27.96
2022-09-04T18:50:36.087Z,27.89
2022-09-04T18:50:40.779Z,27.78
2022-09-04T18:51:31.080Z,27.71
2022-09-04T18:54:08.619Z,27.65
2022-09-04T18:56:43.916Z,27.57
2022-09-04T18:59:15.853Z,27.55
2022-09-04T19:01:48.561Z,27.48
2022-09-04T19:04:47.552Z,27.39
2022-09-04T19:07:29.930Z,27.32
2022-09-04T19:10:07.848Z,27.24
2022-09-04T19:12:46.848Z,27.17
2022-09-04T19:15:45.567Z,27.09
2022-09-04T19:18:26.842Z,27.02
2022-09-04T19:21:14.961Z,26.97
2022-09-04T19:23:50.091Z,26.89
2022-09-04T19:26:26.420Z,26.82
2022-09-04T19:28:59.122Z,26.76
2022-09-04T19:31:34.167Z,26.66
2022-09-04T19:34:13.773Z,26.65
2022-09-04T19:36:48.791Z,26.58
2022-09-04T19:45:57.761Z,26.47
2022-09-04T19:46:03.889Z,26.52
2022-09-04T19:46:16.323Z,26.42
2022-09-04T19:48:32.142Z,26.34
2022-09-04T19:53:31.773Z,26.26
2022-09-04T19:53:59.469Z,26.22
2022-09-04T19:56:32.634Z,26.14
2022-09-04T19:59:30.305Z,26.09
2022-09-04T20:02:03.695Z,26.02
2022-09-04T20:04:41.432Z,25.98
2022-09-04T20:07:18.352Z,25.92
2022-09-04T20:09:50.778Z,25.86
2022-09-04T20:12:25.327Z,25.81
2022-09-04T20:14:59.136Z,25.77
2022-09-04T20:17:41.755Z,25.71
2022-09-04T20:20:19.168Z,25.67
2022-09-04T20:22:53.835Z,25.63
2022-09-04T20:25:32.074Z,25.58
2022-09-04T20:28:16.591Z,25.54
2022-09-04T20:30:49.810Z,25.48
2022-09-04T20:33:21.964Z,25.43
2022-09-04T20:35:54.310Z,25.39
2022-09-04T20:38:30.455Z,25.36
2022-09-04T20:41:08.095Z,25.31
2022-09-04T20:43:56.131Z,25.25
2022-09-04T20:48:28.449Z,25.21
2022-09-04T20:52:51.517Z,25.17
2022-09-04T20:52:51.810Z,25.12
2022-09-04T20:55:29.307Z,25.08
2022-09-04T21:02:11.108Z,25.01
2022-09-04T21:03:17.388Z,24.97
2022-09-04T21:04:10.329Z,24.94
2022-09-04T21:06:46.001Z,24.91
2022-09-04T21:09:30.433Z,24.89
2022-09-04T21:12:16.952Z,24.85
2022-09-04T21:14:49.281Z,24.80
2022-09-04T21:17:46.547Z,24.77
2022-09-04T21:20:46.658Z,24.74
2022-09-04T21:24:07.932Z,24.71
2022-09-04T21:26:56.585Z,24.67
2022-09-04T21:29:39.774Z,24.64
2022-09-04T21:32:29.938Z,24.60
2022-09-04T21:35:06.369Z,24.58
2022-09-04T21:37:46.688Z,24.53
2022-09-04T21:40:50.922Z,24.49
2022-09-04T21:44:05.040Z,24.46
2022-09-04T21:47:08.576Z,24.41
2022-09-04T21:50:16.671Z,24.37
2022-09-04T21:53:16.990Z,24.32
2022-09-04T21:58:21.193Z,24.27
2022-09-04T22:02:36.084Z,24.18
2022-09-04T22:02:38.282Z,24.21
2022-09-04T22:05:09.978Z,24.13
2022-09-04T22:11:19.401Z,24.10
2022-09-04T22:13:39.194Z,24.06
2022-09-04T22:14:03.176Z,24.04
2022-09-04T22:16:46.983Z,23.99
2022-09-04T22:20:04.006Z,23.95
2022-09-04T22:23:03.555Z,23.91
2022-09-04T22:25:48.126Z,23.87
2022-09-04T22:28:59.307Z,23.81
2022-09-04T22:32:03.170Z,23.77
2022-09-04T22:34:52.157Z,23.76
2022-09-04T22:38:13.367Z,23.73
2022-09-04T22:40:56.049Z,23.66
2022-09-04T22:43:26.185Z,23.62
2022-09-04T22:46:17.605Z,23.57
2022-09-04T22:49:20.042Z,23.55
2022-09-04T22:52:27.440Z,23.51
2022-09-04T22:55:29.317Z,23.49
2022-09-04T22:58:10.196Z,23.46
2022-09-04T23:01:02.599Z,23.42
2022-09-04T23:03:46.690Z,23.41
2022-09-04T23:09:07.293Z,23.37
2022-09-04T23:13:53.899Z,23.30
2022-09-04T23:14:02.318Z,23.34
2022-09-04T23:16:27.923Z,23.27
2022-09-04T23:24:46.575Z,23.22
2022-09-04T23:26:34.916Z,23.19
2022-09-04T23:26:45.165Z,23.17
2022-09-04T23:28:28.183Z,23.14
2022-09-04T23:31:19.990Z,23.10
2022-09-04T23:34:18.914Z,23.07
2022-09-04T23:37:07.981Z,23.05
2022-09-04T23:40:03.484Z,23.01
2022-09-04T23:43:21.778Z,22.98
2022-09-04T23:46:14.627Z,22.96
2022-09-04T23:49:07.177Z,22.94
2022-09-04T23:51:47.421Z,22.92
2022-09-04T23:54:50.860Z,22.88
2022-09-04T23:57:28.134Z,22.86
